createdAt,value
2022-12-03T00:01:02.430Z,37.60
2022-12-03T00:02:27.305Z,38.42
2022-12-03T00:03:48.249Z,37.42
2022-12-03T00:05:11.406Z,36.03
2022-12-03T00:06:44.761Z,36.40
2022-12-03T00:08:16.715Z,37.72
2022-12-03T00:09:38.366Z,34.85
2022-12-03T00:11:00.351Z,35.73
2022-12-03T00:12:31.522Z,36.97
2022-12-03T00:13:53.713Z,38.42
2022-12-03T00:15:16.357Z,36.53
2022-12-03T00:16:37.279Z,35.45
2022-12-03T00:17:59.332Z,34.90
2022-12-03T00:19:21.469Z,37.75
2022-12-03T00:20:43.364Z,38.72
2022-12-03T00:22:05.862Z,36.53
2022-12-03T00:23:28.115Z,37.85
2022-12-03T00:26:10.838Z,36.50
2022-12-03T00:27:33.132Z,34.50
2022-12-03T00:28:56.192Z,38.63
2022-12-03T00:30:19.894Z,37.50
2022-12-03T00:31:43.359Z,35.70
2022-12-03T00:33:07.680Z,36.05
2022-12-03T00:34:29.809Z,35.33
2022-12-03T00:37:14.364Z,36.83
2022-12-03T00:38:36.878Z,37.45
2022-12-03T00:39:59.292Z,38.13
2022-12-03T00:41:20.219Z,36.75
2022-12-03T00:42:48.517Z,36.53
2022-12-03T00:44:14.706Z,38.10
2022-12-03T00:45:48.171Z,37.72
2022-12-03T00:47:14.749Z,35.17
2022-12-03T00:48:37.750Z,40.20
2022-12-03T00:50:03.426Z,37.42
2022-12-03T00:51:27.311Z,35.42
2022-12-03T00:52:59.540Z,36.55
2022-12-03T00:55:48.598Z,33.47
2022-12-03T00:57:09.633Z,36.85
2022-12-03T00:58:33.819Z,38.67
2022-12-03T00:59:57.782Z,36.90
2022-12-03T01:01:34.744Z,38.08
2022-12-03T01:03:02.481Z,35.08
2022-12-03T01:04:24.498Z,36.55
2022-12-03T01:05:49.612Z,37.08
2022-12-03T01:07:18.359Z,38.38
2022-12-03T01:08:43.592Z,36.90
2022-12-03T01:10:07.015Z,39.28
2022-12-03T01:11:42.353Z,34.90
2022-12-03T01:13:07.692Z,35.90
2022-12-03T01:14:31.605Z,35.83
2022-12-03T01:15:53.691Z,37.55
2022-12-03T01:17:18.974Z,37.45
2022-12-03T01:18:40.771Z,35.97
2022-12-03T01:20:04.695Z,36.85
2022-12-03T01:21:26.943Z,37.55
2022-12-03T01:22:49.099Z,36.88
2022-12-03T01:25:35.986Z,35.13
2022-12-03T01:27:00.681Z,36.97
2022-12-03T01:28:21.421Z,35.58
2022-12-03T01:29:43.700Z,36.78
2022-12-03T01:31:23.487Z,36.25
2022-12-03T01:32:47.489Z,36.45
2022-12-03T01:34:14.128Z,36.63
2022-12-03T01:35:36.406Z,35.97
2022-12-03T01:38:21.266Z,34.33
2022-12-03T01:39:45.433Z,38.55
2022-12-03T01:41:12.060Z,37.00
2022-12-03T01:42:44.571Z,37.30
2022-12-03T01:44:16.487Z,34.58
2022-12-03T01:45:38.995Z,37.65
2022-12-03T01:47:02.882Z,38.60
2022-12-03T01:48:25.576Z,38.20
2022-12-03T01:49:51.423Z,38.88
2022-12-03T01:51:14.031Z,39.28
2022-12-03T01:52:40.605Z,35.58
2022-12-03T01:54:05.030Z,38.42
2022-12-03T01:55:29.352Z,39.08
2022-12-03T01:56:51.027Z,38.50
2022-12-03T01:58:15.554Z,37.67
2022-12-03T02:01:28.051Z,38.60
2022-12-03T02:02:53.061Z,40.20
2022-12-03T02:04:25.689Z,37.03
2022-12-03T02:05:49.293Z,39.47
2022-12-03T02:07:28.834Z,38.22
2022-12-03T02:08:50.381Z,38.22
2022-12-03T02:10:25.354Z,36.50
2022-12-03T02:11:55.356Z,36.42
2022-12-03T02:13:24.409Z,38.13
2022-12-03T02:14:47.720Z,35.88
2022-12-03T02:16:16.022Z,38.92
2022-12-03T02:17:39.508Z,36.85
2022-12-03T02:19:00.759Z,38.20
2022-12-03T02:20:26.504Z,38.38
2022-12-03T02:21:57.645Z,38.65
2022-12-03T02:23:31.438Z,37.78
2022-12-03T02:25:00.565Z,38.60
2022-12-03T02:26:25.579Z,39.97
2022-12-03T02:27:49.211Z,38.17
2022-12-03T02:29:10.455Z,37.70
2022-12-03T02:30:33.034Z,36.15
2022-12-03T02:31:54.214Z,39.10
2022-12-03T02:33:16.722Z,28.90
2022-12-03T02:34:52.351Z,36.50
2022-12-03T02:36:15.618Z,35.28
2022-12-03T02:37:37.929Z,40.13
2022-12-03T02:39:01.446Z,34.22
2022-12-03T02:40:27.446Z,36.13
2022-12-03T02:42:08.125Z,37.17
2022-12-03T02:43:30.410Z,36.33
2022-12-03T02:44:52.403Z,37.25
2022-12-03T02:46:14.573Z,38.45
2022-12-03T02:47:40.863Z,36.45
2022-12-03T02:49:03.706Z,36.00
2022-12-03T02:50:30.385Z,37.70
2022-12-03T02:51:51.285Z,37.17
2022-12-03T02:53:16.580Z,36.30
2022-12-03T02:54:37.943Z,35.53
2022-12-03T02:56:04.681Z,37.85
2022-12-03T02:57:27.348Z,40.33
2022-12-03T02:58:53.170Z,38.13
2022-12-03T03:00:20.024Z,37.35
2022-12-03T03:01:45.137Z,37.63
2022-12-03T03:03:09.891Z,37.83
2022-12-03T03:04:36.086Z,36.30
2022-12-03T03:06:03.728Z,36.58
2022-12-03T03:07:31.996Z,35.70
2022-12-03T03:08:54.524Z,36.17
2022-12-03T03:10:19.472Z,35.70
2022-12-03T03:11:43.139Z,36.58
2022-12-03T03:13:11.371Z,35.72
2022-12-03T03:14:34.769Z,36.33
2022-12-03T03:15:57.589Z,37.13
2022-12-03T03:17:20.253Z,38.95
2022-12-03T03:18:41.759Z,37.00
2022-12-03T03:20:04.728Z,36.45
2022-12-03T03:21:26.042Z,35.92
2022-12-03T03:22:48.644Z,35.47
2022-12-03T03:24:10.709Z,34.50
2022-12-03T03:25:35.471Z,37.58
2022-12-03T03:26:57.705Z,36.88
2022-12-03T03:28:20.355Z,34.25
2022-12-03T03:29:42.532Z,33.13
2022-12-03T03:31:05.549Z,34.83
2022-12-03T03:32:29.407Z,34.90
2022-12-03T03:33:52.246Z,34.92
2022-12-03T03:35:14.908Z,32.92
2022-12-03T03:36:37.470Z,35.58
2022-12-03T03:37:59.212Z,38.78
2022-12-03T03:39:23.847Z,35.30
2022-12-03T03:40:45.964Z,35.80
2022-12-03T03:43:36.987Z,34.33
2022-12-03T03:45:01.094Z,36.10
2022-12-03T03:46:42.891Z,35.60
2022-12-03T03:48:05.320Z,34.70
2022-12-03T03:49:27.486Z,36.38
2022-12-03T03:50:50.701Z,34.72
2022-12-03T03:52:13.565Z,36.00
2022-12-03T03:53:34.964Z,34.67
2022-12-03T03:54:56.892Z,33.92
2022-12-03T03:56:20.736Z,35.40
2022-12-03T03:57:42.796Z,35.17
2022-12-03T03:59:06.758Z,35.78
2022-12-03T04:00:28.107Z,34.03
2022-12-03T04:01:50.408Z,37.55
2022-12-03T04:03:11.791Z,34.80
2022-12-03T04:04:37.955Z,35.10
2022-12-03T04:06:00.089Z,34.90
2022-12-03T04:07:25.705Z,32.85
2022-12-03T04:08:47.915Z,34.50
2022-12-03T04:10:39.831Z,34.42
2022-12-03T04:12:19.801Z,34.73
2022-12-03T04:13:41.138Z,35.22
2022-12-03T04:15:05.544Z,35.10
2022-12-03T04:16:28.002Z,35.00
2022-12-03T04:18:09.569Z,34.42
2022-12-03T04:19:32.095Z,35.63
2022-12-03T04:21:14.101Z,34.45
2022-12-03T04:22:41.294Z,35.22
2022-12-03T04:24:04.109Z,35.40
2022-12-03T04:25:46.892Z,36.25
2022-12-03T04:27:27.191Z,36.78
2022-12-03T04:28:51.072Z,34.42
2022-12-03T04:30:14.749Z,35.17
2022-12-03T04:31:54.305Z,35.83
2022-12-03T04:33:33.753Z,37.88
2022-12-03T04:35:13.870Z,35.72
2022-12-03T04:36:36.663Z,35.25
2022-12-03T04:37:58.606Z,37.67
2022-12-03T04:39:19.850Z,35.25
2022-12-03T04:40:59.370Z,38.33
2022-12-03T04:42:21.488Z,36.40
2022-12-03T04:43:57.419Z,37.60
2022-12-03T04:45:21.076Z,35.53
2022-12-03T04:46:44.982Z,37.33
2022-12-03T04:48:07.967Z,35.38
2022-12-03T04:49:33.489Z,38.38
2022-12-03T04:50:55.478Z,37.38
2022-12-03T04:52:18.358Z,38.28
2022-12-03T04:53:45.899Z,35.25
2022-12-03T04:55:08.641Z,36.25
2022-12-03T04:56:29.689Z,38.95
2022-12-03T04:57:51.727Z,36.03
2022-12-03T04:59:16.352Z,37.75
2022-12-03T05:00:40.417Z,36.33
2022-12-03T05:02:01.221Z,35.95
2022-12-03T05:03:23.039Z,37.42
2022-12-03T05:04:44.087Z,38.42
2022-12-03T05:06:06.065Z,35.75
2022-12-03T05:08:52.392Z,35.25
2022-12-03T05:10:14.823Z,36.75
2022-12-03T05:11:35.902Z,35.50
2022-12-03T05:12:58.080Z,32.13
2022-12-03T05:14:20.477Z,35.50
2022-12-03T05:15:42.669Z,38.08
2022-12-03T05:17:04.953Z,38.13
2022-12-03T05:18:25.995Z,37.50
2022-12-03T05:20:05.102Z,40.65
2022-12-03T05:21:27.228Z,36.70
2022-12-03T05:22:48.347Z,36.17
2022-12-03T05:24:10.273Z,36.97
2022-12-03T05:26:53.087Z,36.45
2022-12-03T05:28:14.492Z,36.13
2022-12-03T05:29:37.030Z,36.13
2022-12-03T05:31:03.589Z,37.15
2022-12-03T05:32:25.675Z,38.72
2022-12-03T05:33:47.807Z,37.22
2022-12-03T05:35:10.739Z,36.72
2022-12-03T05:36:32.521Z,39.33
2022-12-03T05:37:54.089Z,37.88
2022-12-03T05:39:16.279Z,40.40
2022-12-03T05:40:37.472Z,38.17
2022-12-03T05:42:17.191Z,39.22
2022-12-03T05:43:39.085Z,36.17
2022-12-03T05:45:00.248Z,36.67
2022-12-03T05:46:23.668Z,36.45
2022-12-03T05:47:45.171Z,37.10
2022-12-03T05:49:07.440Z,38.38
2022-12-03T05:50:30.772Z,38.13
2022-12-03T05:51:58.237Z,36.95
2022-12-03T05:53:21.388Z,38.78
2022-12-03T05:54:43.404Z,38.47
2022-12-03T05:56:05.935Z,37.05
2022-12-03T05:57:29.407Z,37.80
2022-12-03T05:58:51.715Z,38.22
2022-12-03T06:02:59.579Z,35.63
2022-12-03T06:04:21.826Z,36.92
2022-12-03T06:05:43.987Z,39.33
2022-12-03T06:07:12.517Z,38.60
2022-12-03T06:08:36.057Z,36.85
2022-12-03T06:09:57.370Z,36.05
2022-12-03T06:11:19.167Z,38.75
2022-12-03T06:12:50.573Z,37.60
2022-12-03T06:14:12.729Z,37.93
2022-12-03T06:15:42.124Z,36.55
2022-12-03T06:17:07.205Z,38.20
2022-12-03T06:18:32.387Z,37.75
2022-12-03T06:19:54.560Z,37.05
2022-12-03T06:21:16.766Z,39.15
2022-12-03T06:22:40.436Z,37.83
2022-12-03T06:24:03.139Z,38.15
2022-12-03T06:25:25.012Z,39.75
2022-12-03T06:26:47.341Z,40.75
2022-12-03T06:28:09.806Z,40.10
2022-12-03T06:29:31.212Z,38.20
2022-12-03T06:30:53.471Z,39.15
2022-12-03T06:32:17.051Z,36.38
2022-12-03T06:33:38.289Z,37.72
2022-12-03T06:35:02.936Z,37.97
2022-12-03T06:36:26.247Z,39.47
2022-12-03T06:37:48.701Z,35.50
2022-12-03T06:39:17.003Z,36.70
2022-12-03T06:40:42.852Z,37.15
2022-12-03T06:42:06.623Z,37.65
2022-12-03T06:43:29.029Z,37.40
2022-12-03T06:44:50.894Z,36.85
2022-12-03T06:46:17.617Z,38.03
2022-12-03T06:47:41.800Z,37.45
2022-12-03T06:49:03.339Z,36.55
2022-12-03T06:50:25.841Z,37.45
2022-12-03T06:51:47.192Z,36.35
2022-12-03T06:54:37.954Z,35.05
2022-12-03T06:56:03.359Z,37.25
2022-12-03T06:57:25.327Z,39.42
2022-12-03T06:58:47.633Z,36.88
2022-12-03T07:00:11.293Z,38.35
2022-12-03T07:01:32.917Z,38.13
2022-12-03T07:02:56.796Z,27.63
2022-12-03T07:04:17.873Z,35.88
2022-12-03T07:05:43.960Z,37.08
2022-12-03T07:07:09.929Z,36.80
2022-12-03T07:08:41.125Z,38.80
2022-12-03T07:10:03.472Z,39.22
2022-12-03T07:11:39.828Z,38.13
2022-12-03T07:13:02.435Z,36.03
2022-12-03T07:14:25.059Z,40.53
2022-12-03T07:15:47.116Z,37.70
2022-12-03T07:18:34.117Z,36.70
2022-12-03T07:19:56.241Z,35.63
2022-12-03T07:21:17.682Z,36.97
2022-12-03T07:22:40.776Z,40.22
2022-12-03T07:24:02.969Z,40.13
2022-12-03T07:25:25.239Z,39.35
2022-12-03T07:26:49.859Z,38.35
2022-12-03T07:28:14.191Z,39.40
2022-12-03T07:29:36.731Z,39.78
2022-12-03T07:31:01.830Z,40.42
2022-12-03T07:32:24.462Z,40.30
2022-12-03T07:33:51.535Z,39.13
2022-12-03T07:35:13.727Z,37.75
2022-12-03T07:36:35.777Z,43.92
2022-12-03T07:37:58.090Z,40.53
2022-12-03T07:39:22.335Z,39.63
2022-12-03T07:40:43.176Z,39.53
2022-12-03T07:42:09.357Z,39.78
2022-12-03T07:43:35.072Z,38.55
2022-12-03T07:45:01.985Z,37.40
2022-12-03T07:46:24.486Z,39.63
2022-12-03T07:47:46.953Z,38.55
2022-12-03T07:49:12.345Z,40.65
2022-12-03T07:50:33.410Z,38.65
2022-12-03T07:51:57.102Z,36.77
2022-12-03T07:53:18.403Z,42.17
2022-12-03T07:54:40.699Z,39.53
2022-12-03T07:56:05.108Z,39.97
2022-12-03T07:57:27.380Z,41.33
2022-12-03T07:58:52.967Z,40.40
2022-12-03T08:00:16.614Z,38.67
2022-12-03T08:01:38.863Z,41.97
2022-12-03T08:02:59.999Z,39.50
2022-12-03T08:04:23.650Z,39.75
2022-12-03T08:05:45.596Z,38.58
2022-12-03T08:07:07.738Z,38.75
2022-12-03T08:08:29.064Z,39.20
2022-12-03T08:09:51.766Z,38.42
2022-12-03T08:11:18.391Z,40.08
2022-12-03T08:12:42.352Z,38.75
2022-12-03T08:14:09.441Z,39.00
2022-12-03T08:15:38.481Z,42.13
2022-12-03T08:17:02.350Z,40.67
2022-12-03T08:18:24.532Z,40.80
2022-12-03T08:19:49.030Z,39.00
2022-12-03T08:21:13.145Z,38.95
2022-12-03T08:22:35.023Z,39.72
2022-12-03T08:23:57.990Z,41.00
2022-12-03T08:25:27.199Z,40.03
2022-12-03T08:26:50.185Z,42.72
2022-12-03T08:28:20.360Z,44.92
2022-12-03T08:29:45.298Z,39.08
2022-12-03T08:31:18.753Z,41.40
2022-12-03T08:32:41.336Z,42.65
2022-12-03T08:35:39.654Z,35.92
2022-12-03T08:39:19.588Z,38.70
2022-12-03T08:41:00.453Z,40.10
2022-12-03T08:42:51.353Z,39.17
2022-12-03T08:44:27.145Z,37.47
2022-12-03T08:45:50.025Z,39.17
2022-12-03T08:47:17.639Z,38.30
2022-12-03T08:48:44.043Z,40.30
2022-12-03T08:50:29.208Z,38.50
2022-12-03T08:51:57.978Z,39.45
2022-12-03T08:53:31.629Z,39.30
2022-12-03T08:54:57.471Z,38.45
2022-12-03T08:56:25.589Z,39.38
2022-12-03T08:57:47.817Z,40.85
2022-12-03T08:59:25.131Z,39.38
2022-12-03T09:00:47.430Z,40.72
2022-12-03T09:02:20.104Z,39.63
2022-12-03T09:03:54.356Z,40.47
2022-12-03T09:05:26.774Z,40.08
2022-12-03T09:07:12.265Z,42.03
2022-12-03T09:08:40.903Z,41.75
2022-12-03T09:10:02.821Z,42.97
2022-12-03T09:11:25.289Z,43.67
2022-12-03T09:12:47.419Z,43.83
2022-12-03T09:14:13.699Z,40.08
2022-12-03T09:15:41.993Z,41.65
2022-12-03T09:17:09.242Z,41.78
2022-12-03T09:18:32.439Z,40.92
2022-12-03T09:20:01.448Z,41.42
2022-12-03T09:21:25.027Z,42.63
2022-12-03T09:22:50.862Z,42.55
2022-12-03T09:24:13.854Z,40.97
2022-12-03T09:25:35.920Z,42.03
2022-12-03T09:26:57.961Z,40.70
2022-12-03T09:28:22.699Z,40.55
2022-12-03T09:29:47.907Z,46.10
2022-12-03T09:31:10.533Z,43.85
2022-12-03T09:32:32.901Z,41.20
2022-12-03T09:33:55.299Z,42.35
2022-12-03T09:35:23.288Z,41.95
2022-12-03T09:36:45.543Z,41.78
2022-12-03T09:38:11.169Z,41.88
2022-12-03T09:39:38.277Z,43.70
2022-12-03T09:41:03.294Z,44.55
2022-12-03T09:42:36.603Z,43.28
2022-12-03T09:44:08.591Z,41.80
2022-12-03T09:45:37.009Z,44.83
2022-12-03T09:47:03.832Z,47.97
2022-12-03T09:48:26.242Z,47.70
2022-12-03T09:49:51.533Z,46.75
2022-12-03T09:51:17.101Z,47.65
2022-12-03T09:52:39.074Z,46.78
2022-12-03T09:54:04.419Z,46.72
2022-12-03T09:55:29.229Z,44.20
2022-12-03T09:56:54.480Z,45.72
2022-12-03T09:58:18.480Z,45.17
2022-12-03T09:59:41.067Z,47.13
2022-12-03T10:01:03.623Z,48.58
2022-12-03T10:02:30.420Z,45.63
2022-12-03T10:03:53.545Z,50.42
2022-12-03T10:05:16.693Z,51.03
2022-12-03T10:06:45.288Z,45.92
2022-12-03T10:08:10.411Z,43.53
2022-12-03T10:09:34.457Z,47.55
2022-12-03T10:11:00.440Z,48.53
2022-12-03T10:12:26.282Z,49.78
2022-12-03T10:13:50.606Z,53.15
2022-12-03T10:15:17.935Z,59.15
2022-12-03T10:16:41.154Z,49.58
2022-12-03T10:18:14.631Z,50.67
2022-12-03T10:19:39.765Z,48.42
2022-12-03T10:21:02.217Z,47.75
2022-12-03T10:22:25.323Z,50.20
2022-12-03T10:23:55.247Z,65.45
2022-12-03T10:25:20.951Z,65.05
2022-12-03T10:26:43.680Z,55.35
2022-12-03T10:28:08.549Z,53.92
2022-12-03T10:29:34.362Z,53.80
2022-12-03T10:30:56.765Z,51.78
2022-12-03T10:32:18.993Z,49.25
2022-12-03T10:33:44.922Z,51.60
2022-12-03T10:35:12.238Z,54.95
2022-12-03T10:36:36.603Z,53.08
2022-12-03T10:38:01.316Z,52.00
2022-12-03T10:39:24.942Z,54.38
2022-12-03T10:40:50.936Z,53.85
2022-12-03T10:42:17.042Z,53.47
2022-12-03T10:43:41.551Z,52.20
2022-12-03T10:45:24.531Z,49.10
2022-12-03T10:46:47.900Z,48.67
2022-12-03T10:48:14.988Z,50.63
2022-12-03T10:49:37.594Z,51.42
2022-12-03T10:51:05.452Z,49.15
2022-12-03T10:52:27.679Z,49.33
2022-12-03T10:53:50.967Z,51.50
2022-12-03T10:55:14.623Z,49.20
2022-12-03T10:56:38.189Z,47.47
2022-12-03T10:58:06.101Z,50.20
2022-12-03T10:59:32.553Z,51.25
2022-12-03T11:00:57.821Z,51.63
2022-12-03T11:02:24.004Z,52.85
2022-12-03T11:03:47.067Z,49.38
2022-12-03T11:05:14.229Z,48.55
2022-12-03T11:06:36.311Z,51.38
2022-12-03T11:07:58.568Z,48.50
2022-12-03T11:09:23.251Z,52.78
2022-12-03T11:10:45.739Z,55.10
2022-12-03T11:12:18.938Z,53.13
2022-12-03T11:13:47.815Z,47.65
2022-12-03T11:15:16.808Z,47.45
2022-12-03T11:17:09.185Z,47.78
2022-12-03T11:19:00.401Z,44.38
2022-12-03T11:21:06.974Z,44.55
2022-12-03T11:22:44.812Z,47.47
2022-12-03T11:24:21.185Z,47.92
2022-12-03T11:25:55.219Z,49.72
2022-12-03T11:28:13.656Z,48.70
2022-12-03T11:31:08.301Z,47.22
2022-12-03T11:35:45.610Z,49.70
2022-12-03T11:37:41.752Z,50.50
2022-12-03T11:39:08.284Z,48.83
2022-12-03T11:40:32.460Z,47.97
2022-12-03T11:42:41.769Z,46.05
2022-12-03T11:44:32.926Z,43.03
2022-12-03T11:46:04.218Z,46.60
2022-12-03T11:47:28.892Z,47.05
2022-12-03T11:49:06.768Z,48.53
2022-12-03T11:50:40.053Z,46.33
2022-12-03T11:52:08.824Z,47.83
2022-12-03T11:53:34.508Z,45.33
2022-12-03T11:55:21.963Z,46.60
2022-12-03T11:56:47.984Z,47.53
2022-12-03T11:58:18.711Z,45.58
2022-12-03T12:00:05.194Z,46.42
2022-12-03T12:01:43.680Z,45.08
2022-12-03T12:03:28.461Z,47.47
2022-12-03T12:04:52.101Z,45.17
2022-12-03T12:06:21.930Z,47.88
2022-12-03T12:07:51.523Z,46.17
2022-12-03T12:09:17.033Z,46.90
2022-12-03T12:10:41.147Z,47.55
2022-12-03T12:12:32.968Z,47.17
2022-12-03T12:13:57.177Z,46.72
2022-12-03T12:15:43.185Z,46.97
2022-12-03T12:17:33.758Z,50.78
2022-12-03T12:18:56.410Z,51.55
2022-12-03T12:20:27.329Z,50.38
2022-12-03T12:21:51.912Z,53.47
2022-12-03T12:23:28.179Z,54.80
2022-12-03T12:24:51.868Z,54.60
2022-12-03T12:26:16.264Z,56.20
2022-12-03T12:27:45.291Z,55.33
2022-12-03T12:29:07.435Z,69.38
2022-12-03T12:30:29.654Z,75.38
2022-12-03T12:33:23.398Z,53.45
2022-12-03T12:34:50.571Z,49.42
2022-12-03T12:36:13.121Z,50.28
2022-12-03T12:37:47.041Z,51.28
2022-12-03T12:39:11.745Z,48.92
2022-12-03T12:40:35.656Z,46.53
2022-12-03T12:41:57.414Z,47.53
2022-12-03T12:43:27.036Z,49.65
2022-12-03T12:44:50.384Z,47.88
2022-12-03T12:48:04.429Z,48.92
2022-12-03T12:49:29.363Z,50.08
2022-12-03T12:50:54.848Z,54.28
2022-12-03T12:52:16.741Z,50.97
2022-12-03T12:53:43.104Z,50.30
2022-12-03T12:55:09.646Z,47.58
2022-12-03T12:56:33.249Z,48.05
2022-12-03T12:57:57.786Z,46.70
2022-12-03T12:59:22.329Z,48.05
2022-12-03T13:00:48.034Z,49.15
2022-12-03T13:02:44.526Z,49.47
2022-12-03T13:04:12.737Z,48.58
2022-12-03T13:05:47.230Z,49.17
2022-12-03T13:07:10.541Z,50.17
2022-12-03T13:08:35.663Z,52.78
2022-12-03T13:09:58.463Z,51.50
2022-12-03T13:11:35.613Z,53.33
2022-12-03T13:12:56.376Z,55.70
2022-12-03T13:14:23.250Z,50.17
2022-12-03T13:15:49.768Z,51.83
2022-12-03T13:17:20.072Z,52.72
2022-12-03T13:18:46.456Z,52.33
2022-12-03T13:20:17.507Z,48.90
2022-12-03T13:21:44.196Z,45.38
2022-12-03T13:23:26.303Z,48.40
2022-12-03T13:24:51.680Z,48.67
2022-12-03T13:26:36.130Z,46.10
2022-12-03T13:28:04.335Z,45.92
2022-12-03T13:29:28.645Z,51.25
2022-12-03T13:30:51.407Z,47.92
2022-12-03T13:32:18.262Z,49.72
2022-12-03T13:33:39.984Z,48.78
2022-12-03T13:35:20.893Z,48.75
2022-12-03T13:36:55.386Z,47.83
2022-12-03T13:38:25.359Z,47.65
2022-12-03T13:39:52.210Z,48.63
2022-12-03T13:41:31.431Z,49.30
2022-12-03T13:42:55.309Z,48.17
2022-12-03T13:44:21.217Z,42.17
2022-12-03T13:45:46.200Z,48.15
2022-12-03T13:47:15.321Z,51.20
2022-12-03T13:48:37.052Z,50.70
2022-12-03T13:50:05.615Z,47.92
2022-12-03T13:51:31.349Z,46.85
2022-12-03T13:52:54.807Z,50.65
2022-12-03T13:54:22.814Z,49.08
2022-12-03T13:55:46.912Z,47.05
2022-12-03T13:57:09.230Z,49.42
2022-12-03T13:58:31.477Z,49.25
2022-12-03T13:59:54.295Z,51.72
2022-12-03T14:01:16.294Z,50.25
2022-12-03T14:02:39.174Z,52.17
2022-12-03T14:04:01.204Z,49.58
2022-12-03T14:05:23.192Z,51.65
2022-12-03T14:06:45.376Z,50.88
2022-12-03T14:08:09.692Z,51.42
2022-12-03T14:09:34.564Z,50.42
2022-12-03T14:11:05.949Z,50.45
2022-12-03T14:12:29.153Z,51.60
2022-12-03T14:14:09.878Z,52.17
2022-12-03T14:15:53.323Z,46.88
2022-12-03T14:17:17.110Z,49.85
2022-12-03T14:18:40.519Z,50.00
2022-12-03T14:20:08.465Z,47.97
2022-12-03T14:21:34.906Z,47.95
2022-12-03T14:22:59.443Z,46.15
2022-12-03T14:24:23.085Z,50.72
2022-12-03T14:25:45.224Z,47.78
2022-12-03T14:27:10.559Z,48.00
2022-12-03T14:28:36.535Z,50.10
2022-12-03T14:30:01.275Z,49.78
2022-12-03T14:31:23.457Z,49.97
2022-12-03T14:32:55.211Z,49.88
2022-12-03T14:34:17.275Z,48.27
2022-12-03T14:37:21.282Z,50.60
2022-12-03T14:38:58.164Z,48.70
2022-12-03T14:40:34.449Z,46.95
2022-12-03T14:42:15.855Z,47.88
2022-12-03T14:43:37.955Z,49.45
2022-12-03T14:45:00.028Z,46.38
2022-12-03T14:46:21.180Z,49.60
2022-12-03T14:47:42.938Z,50.67
2022-12-03T14:50:25.867Z,47.65
2022-12-03T14:51:46.850Z,45.17
2022-12-03T14:53:08.811Z,48.47
2022-12-03T14:54:30.863Z,48.60
2022-12-03T14:55:55.929Z,50.92
2022-12-03T14:57:18.137Z,49.67
2022-12-03T15:00:00.924Z,48.20
2022-12-03T15:01:23.695Z,49.35
2022-12-03T15:02:45.158Z,49.72
2022-12-03T15:04:09.889Z,48.63
2022-12-03T15:05:32.157Z,51.40
2022-12-03T15:06:54.381Z,50.80
2022-12-03T15:08:16.558Z,50.00
2022-12-03T15:09:42.556Z,50.63
2022-12-03T15:11:07.702Z,50.30
2022-12-03T15:12:29.593Z,53.35
2022-12-03T15:15:13.433Z,48.03
2022-12-03T15:16:41.601Z,50.38
2022-12-03T15:18:03.817Z,47.72
2022-12-03T15:19:26.381Z,49.30
2022-12-03T15:20:47.443Z,52.30
2022-12-03T15:22:09.184Z,48.17
2022-12-03T15:23:38.335Z,49.92
2022-12-03T15:25:03.717Z,48.75
2022-12-03T15:26:31.410Z,45.88
2022-12-03T15:27:53.896Z,46.35
2022-12-03T15:29:15.860Z,48.08
2022-12-03T15:30:38.106Z,46.35
2022-12-03T15:32:01.347Z,46.38
2022-12-03T15:33:26.287Z,47.45
2022-12-03T15:34:52.284Z,49.20
2022-12-03T15:36:15.287Z,49.25
2022-12-03T15:37:45.880Z,47.53
2022-12-03T15:39:08.127Z,47.38
2022-12-03T15:40:30.362Z,51.33
2022-12-03T15:42:03.404Z,46.47
2022-12-03T15:43:28.841Z,52.90
2022-12-03T15:44:51.316Z,50.10
2022-12-03T15:46:38.583Z,48.72
2022-12-03T15:48:01.510Z,45.45
2022-12-03T15:49:24.287Z,48.38
2022-12-03T15:50:52.025Z,48.05
2022-12-03T15:52:14.246Z,48.72
2022-12-03T15:53:36.587Z,51.08
2022-12-03T15:56:20.672Z,48.10
2022-12-03T15:57:44.868Z,48.40
2022-12-03T15:59:06.639Z,46.63
2022-12-03T16:00:28.960Z,46.55
2022-12-03T16:01:55.704Z,48.72
2022-12-03T16:03:20.825Z,47.25
2022-12-03T16:04:42.871Z,48.80
2022-12-03T16:06:12.828Z,51.22
2022-12-03T16:07:35.695Z,49.67
2022-12-03T16:09:00.699Z,50.30
2022-12-03T16:10:24.809Z,52.83
2022-12-03T16:11:50.022Z,49.75
2022-12-03T16:13:13.384Z,48.88
2022-12-03T16:14:40.378Z,47.72
2022-12-03T16:16:02.740Z,48.97
2022-12-03T16:17:29.006Z,52.17
2022-12-03T16:18:51.434Z,54.17
2022-12-03T16:20:21.814Z,50.88
2022-12-03T16:21:44.632Z,49.92
2022-12-03T16:23:07.548Z,53.60
2022-12-03T16:24:38.598Z,52.53
2022-12-03T16:26:00.634Z,51.20
2022-12-03T16:27:25.848Z,49.17
2022-12-03T16:28:56.023Z,55.25
2022-12-03T16:30:40.141Z,49.83
2022-12-03T16:32:10.573Z,51.35
2022-12-03T16:33:42.360Z,51.17
2022-12-03T16:35:13.966Z,51.63
2022-12-03T16:36:36.176Z,52.05
2022-12-03T16:38:01.100Z,54.63
2022-12-03T16:39:26.544Z,52.67
2022-12-03T16:40:48.758Z,51.13
2022-12-03T16:42:29.608Z,51.90
2022-12-03T16:44:05.562Z,52.70
2022-12-03T16:46:02.531Z,55.00
2022-12-03T16:50:29.507Z,50.42
2022-12-03T16:51:54.204Z,50.53
2022-12-03T16:53:16.511Z,50.67
2022-12-03T16:56:04.743Z,51.40
2022-12-03T16:57:37.430Z,52.83
2022-12-03T16:59:00.925Z,52.15
2022-12-03T17:00:22.360Z,52.80
2022-12-03T17:01:44.620Z,55.70
2022-12-03T17:04:30.973Z,54.67
2022-12-03T17:07:14.583Z,51.58
2022-12-03T17:08:36.860Z,56.45
2022-12-03T17:09:58.152Z,59.85
2022-12-03T17:11:20.442Z,55.63
2022-12-03T17:13:08.250Z,57.22
2022-12-03T17:14:32.849Z,56.50
2022-12-03T17:15:55.616Z,56.17
2022-12-03T17:17:17.938Z,55.00
2022-12-03T17:18:40.496Z,58.08
2022-12-03T17:20:03.197Z,56.95
2022-12-03T17:21:25.433Z,59.63
2022-12-03T17:22:47.720Z,58.05
2022-12-03T17:24:10.278Z,57.90
2022-12-03T17:25:32.627Z,55.33
2022-12-03T17:26:54.458Z,57.85
2022-12-03T17:28:16.918Z,59.83
2022-12-03T17:29:40.734Z,57.30
2022-12-03T17:31:03.027Z,56.90
2022-12-03T17:32:25.482Z,59.15
2022-12-03T17:33:47.789Z,58.58
2022-12-03T17:35:17.322Z,58.63
2022-12-03T17:36:39.317Z,60.33
2022-12-03T17:39:24.812Z,56.95
2022-12-03T17:40:47.346Z,57.50
2022-12-03T17:42:09.434Z,59.03
2022-12-03T17:44:54.622Z,57.30
2022-12-03T17:46:19.555Z,58.47
2022-12-03T17:47:41.738Z,58.33
2022-12-03T17:49:03.860Z,60.38
2022-12-03T17:50:26.171Z,55.75
2022-12-03T17:51:48.644Z,58.53
2022-12-03T17:53:11.587Z,58.08
2022-12-03T17:54:55.124Z,59.75
2022-12-03T17:56:24.094Z,58.30
2022-12-03T17:58:56.466Z,56.45
2022-12-03T18:00:49.308Z,55.65
2022-12-03T18:02:16.040Z,57.45
2022-12-03T18:03:51.346Z,57.97
2022-12-03T18:05:14.339Z,59.22
2022-12-03T18:06:41.884Z,60.45
2022-12-03T18:08:04.739Z,62.60
2022-12-03T18:09:30.414Z,65.65
2022-12-03T18:10:52.415Z,62.67
2022-12-03T18:12:14.851Z,61.03
2022-12-03T18:13:37.207Z,61.67
2022-12-03T18:14:59.493Z,62.00
2022-12-03T18:16:23.761Z,61.45
2022-12-03T18:17:45.556Z,66.78
2022-12-03T18:19:08.194Z,66.78
2022-12-03T18:20:30.255Z,70.03
2022-12-03T18:21:53.037Z,68.13
2022-12-03T18:23:16.339Z,71.22
2022-12-03T18:24:38.360Z,69.30
2022-12-03T18:26:02.230Z,64.35
2022-12-03T18:27:24.964Z,61.88
2022-12-03T18:28:46.978Z,64.63
2022-12-03T18:30:09.977Z,62.60
2022-12-03T18:31:33.745Z,60.40
2022-12-03T18:32:56.125Z,60.03
2022-12-03T18:34:18.429Z,61.08
2022-12-03T18:35:41.001Z,63.17
2022-12-03T18:37:06.647Z,60.35
2022-12-03T18:38:35.465Z,61.53
2022-12-03T18:40:00.357Z,60.00
2022-12-03T18:41:24.120Z,59.92
2022-12-03T18:42:46.625Z,61.05
2022-12-03T18:44:12.423Z,58.72
2022-12-03T18:45:43.541Z,61.88
2022-12-03T18:47:32.518Z,60.35
2022-12-03T18:48:58.028Z,57.33
2022-12-03T18:50:21.605Z,60.65
2022-12-03T18:53:05.384Z,57.63
2022-12-03T18:54:27.924Z,63.53
2022-12-03T18:55:50.040Z,60.30
2022-12-03T18:57:13.702Z,61.35
2022-12-03T18:58:47.077Z,61.08
2022-12-03T19:00:13.681Z,59.13
2022-12-03T19:01:36.764Z,61.05
2022-12-03T19:03:03.443Z,61.35
2022-12-03T19:04:28.907Z,64.18
2022-12-03T19:05:51.759Z,67.00
2022-12-03T19:07:14.453Z,65.32
2022-12-03T19:08:36.682Z,73.38
2022-12-03T19:09:58.641Z,64.30
2022-12-03T19:11:21.507Z,62.08
2022-12-03T19:12:44.326Z,64.25
2022-12-03T19:14:09.237Z,63.95
2022-12-03T19:15:34.042Z,61.30
2022-12-03T19:16:56.534Z,63.53
2022-12-03T19:18:25.810Z,64.93